Grafton, West Virginia
Current Conditions -  °F | °C
As of 10:20 AM on Wednesday 26 Nov 2014 (Local Time) from KCKB Reporting Station
Light Rain Light Rain  
Wind Chill: 36°   Ceiling: 500
Heat Index: 36°   Visibility: 4mi
Dew Point: 34°   Wind: 3mph
Humidity: 93%   Direction: 90°E
Pressure: 30.05"   Gusts: NA
Location:  39.34°N, 80.02°W
Report Text: KCKB 261520Z 09003KT 4SM -RA BR BKN005 OVC025 02/01 A3005 RMK AO2 P0002 T00220011
Loading
Personal Weather Stations






























Interactive Weather Map New forecast layout! Learn more

10-Day Weather Forecast

Advertisements
Track Severe Weather on mobile